Time;durP1;ratioP1;P1;durP2;ratioP2;P2;SDS_P1;SDS_P2;PMS_P1;PMS_P2;Temp;Humidity;BMP_temperature;BMP_pressure;BME280_temperature;BME280_humidity;BME280_pressure;Samples;Min_cycle;Max_cycle;Signal;HPM_P1;HPM_P2
2022/07/03 00:02:20;;;;;;;6.00;4.12;;;;;;;17.60;77.88;100983.02;1735036;82;25556;-72
2022/07/03 00:04:45;;;;;;;4.95;4.33;;;;;;;17.54;77.97;100984.39;1735753;82;25640;-72
2022/07/03 00:07:12;;;;;;;6.47;4.15;;;;;;;17.48;77.99;100987.10;1735710;82;25681;-72
2022/07/03 00:09:38;;;;;;;6.92;4.22;;;;;;;17.43;77.71;100990.05;1735811;82;25436;-72
2022/07/03 00:12:28;;;;;;;4.17;3.87;;;;;;;17.35;77.68;100984.92;1735702;82;27317;-72
2022/07/03 00:14:55;;;;;;;6.08;4.10;;;;;;;17.31;77.74;100988.88;1705243;82;25299;-71
2022/07/03 00:17:21;;;;;;;5.08;4.58;;;;;;;17.24;77.74;100984.53;1730331;82;25548;-72
2022/07/03 00:19:48;;;;;;;6.08;4.40;;;;;;;17.18;77.76;100986.69;1696105;83;26422;-72
2022/07/03 00:22:15;;;;;;;5.25;4.47;;;;;;;17.15;77.81;100989.30;1696321;83;25725;-72
2022/07/03 00:24:54;;;;;;;5.95;4.67;;;;;;;17.10;78.05;100989.51;1720270;83;27353;-72
2022/07/03 00:27:24;;;;;;;5.72;4.53;;;;;;;17.05;78.13;100993.24;1720985;83;25581;-73
2022/07/03 00:29:53;;;;;;;6.25;4.58;;;;;;;17.01;78.20;100997.80;1720266;83;25609;-72
2022/07/03 00:32:23;;;;;;;;;;;;;;;16.96;78.49;100991.17;1708848;83;25639;-73
2022/07/03 00:34:52;;;;;;;6.75;4.50;;;;;;;16.91;79.08;100990.80;1720397;83;25656;-72
2022/07/03 00:37:19;;;;;;;4.75;4.35;;;;;;;16.87;79.38;100993.16;1720357;83;27350;-72
2022/07/03 00:39:46;;;;;;;5.50;4.37;;;;;;;16.83;79.58;100986.17;1720080;83;25656;-72
2022/07/03 00:42:12;;;;;;;5.90;4.85;;;;;;;16.82;79.77;100988.66;1720184;83;25587;-72
2022/07/03 00:44:50;;;;;;;6.03;4.62;;;;;;;16.80;79.86;100991.75;1720135;83;25706;-72
2022/07/03 00:47:19;;;;;;;5.15;4.65;;;;;;;16.80;79.90;100986.83;1720267;83;25677;-70
2022/07/03 00:49:48;;;;;;;;;;;;;;;16.79;79.90;100979.79;1722771;83;27543;-70
2022/07/03 00:52:18;;;;;;;8.80;4.47;;;;;;;16.78;80.29;100980.91;1752592;80;25611;-70
2022/07/03 00:54:49;;;;;;;6.25;4.67;;;;;;;16.76;80.05;100983.97;1777492;80;25573;-70
2022/07/03 00:57:16;;;;;;;5.97;4.58;;;;;;;16.74;80.15;100979.99;1778171;80;26544;-70
2022/07/03 00:59:44;;;;;;;6.08;4.80;;;;;;;16.71;80.18;100971.09;1778750;80;25467;-70
2022/07/03 01:02:39;;;;;;;8.43;5.05;;;;;;;16.70;80.34;100971.67;1778728;80;27560;-70
2022/07/03 01:05:23;;;;;;;7.42;5.05;;;;;;;16.68;80.30;100978.01;1778745;80;25617;-70
2022/07/03 01:08:21;;;;;;;10.28;5.12;;;;;;;16.66;80.24;100973.45;1778721;80;25454;-70
2022/07/03 01:11:19;;;;;;;5.05;4.53;;;;;;;16.63;80.46;100975.48;1778680;80;26388;-73
2022/07/03 01:14:11;;;;;;;7.50;4.75;;;;;;;16.58;80.48;100971.03;1778694;80;25408;-72
2022/07/03 01:16:57;;;;;;;9.65;4.58;;;;;;;16.55;80.37;100970.88;1778800;80;27311;-72
2022/07/03 01:19:35;;;;;;;6.97;5.62;;;;;;;16.52;80.49;100974.30;1778676;80;25385;-72
2022/07/03 01:22:25;;;;;;;6.35;4.35;;;;;;;16.48;80.54;100971.98;1778976;80;25606;-72
2022/07/03 01:25:38;;;;;;;6.67;4.65;;;;;;;16.44;80.87;100965.81;1778793;80;26247;-72
2022/07/03 01:28:17;;;;;;;5.70;5.17;;;;;;;16.44;81.20;100967.75;1692062;84;25653;-73
2022/07/03 01:30:47;;;;;;;6.40;4.75;;;;;;;16.41;80.96;100962.41;1692096;84;27384;-72
2022/07/03 01:33:22;;;;;;;6.17;4.30;;;;;;;16.41;80.99;100969.77;1692062;84;25546;-73
2022/07/03 01:36:05;;;;;;;6.22;5.00;;;;;;;16.41;81.09;100962.41;1687956;84;25548;-73
2022/07/03 01:38:36;;;;;;;6.08;4.78;;;;;;;16.42;81.21;100964.56;1681757;85;25621;-72
2022/07/03 01:41:06;;;;;;;5.70;4.55;;;;;;;16.42;81.27;100965.92;1682816;85;25720;-74
2022/07/03 01:43:43;;;;;;;7.50;4.62;;;;;;;16.43;81.41;100966.17;1682761;85;28045;-74
2022/07/03 01:46:12;;;;;;;6.15;5.03;;;;;;;16.42;81.44;100959.10;1682738;85;25523;-71
2022/07/03 01:48:42;;;;;;;7.03;4.80;;;;;;;16.44;81.69;100956.83;1682874;85;25529;-71
2022/07/03 01:51:13;;;;;;;5.92;4.60;;;;;;;16.43;81.91;100953.31;1682729;85;26293;-72
2022/07/03 01:53:44;;;;;;;9.20;5.05;;;;;;;16.43;82.17;100947.85;1682812;85;25523;-72
2022/07/03 01:56:13;;;;;;;5.65;4.78;;;;;;;16.42;82.26;100938.05;1682821;85;28163;-72
2022/07/03 01:58:39;;;;;;;7.90;4.72;;;;;;;16.44;82.32;100933.62;1682752;85;25484;-72
2022/07/03 02:01:40;;;;;;;5.53;4.72;;;;;;;16.46;82.31;100938.75;1659565;85;25616;-72
2022/07/03 02:04:29;;;;;;;6.30;5.20;;;;;;;16.44;82.40;100934.41;1734671;80;25676;-72
2022/07/03 02:07:04;;;;;;;6.60;5.05;;;;;;;16.43;82.47;100931.47;1782124;80;25446;-72
2022/07/03 02:09:44;;;;;;;7.92;5.55;;;;;;;16.41;82.55;100926.91;1780411;80;27586;-72
2022/07/03 02:12:14;;;;;;;8.98;4.72;;;;;;;16.41;82.43;100927.45;1780005;80;25379;-72
2022/07/03 02:14:40;;;;;;;;;;;;;;;16.41;82.28;100935.65;1766475;80;25598;-72
2022/07/03 02:17:20;;;;;;;6.05;4.40;;;;;;;16.41;82.70;100931.01;1739261;81;26361;-72
2022/07/03 02:20:00;;;;;;;;;;;;;;;16.39;82.40;100931.09;1761060;81;25549;-72
2022/07/03 02:22:34;;;;;;;5.78;4.62;;;;;;;16.40;82.53;100932.70;1758430;81;27374;-71
2022/07/03 02:25:26;;;;;;;6.10;4.58;;;;;;;16.38;82.68;100928.15;1757893;81;25556;-72
2022/07/03 02:27:57;;;;;;;6.90;5.00;;;;;;;16.36;82.38;100923.56;1756875;81;25462;-71
2022/07/03 02:30:27;;;;;;;7.75;5.35;;;;;;;16.34;82.50;100931.30;1758499;81;25621;-74
2022/07/03 02:32:57;;;;;;;5.50;4.22;;;;;;;16.31;82.12;100927.86;1758489;81;25602;-72
2022/07/03 02:35:34;;;;;;;12.35;4.97;;;;;;;16.28;82.18;100927.97;1758419;81;28082;-72
2022/07/03 02:38:06;;;;;;;10.48;4.70;;;;;;;16.26;82.38;100934.33;1758337;81;25386;-72
2022/07/03 02:41:00;;;;;;;6.83;4.65;;;;;;;16.24;82.27;100937.94;1757519;81;25618;-72
2022/07/03 02:43:50;;;;;;;5.87;4.67;;;;;;;16.22;82.33;100932.02;1758423;81;25602;-72
2022/07/03 02:46:50;;;;;;;5.75;4.47;;;;;;;16.19;82.43;100937.59;1758452;81;25612;-72
2022/07/03 02:49:49;;;;;;;5.97;4.30;;;;;;;16.17;82.32;100932.20;1758381;81;27325;-72
2022/07/03 02:52:42;;;;;;;5.17;4.57;;;;;;;16.13;82.23;100927.98;1758541;81;25386;-71
2022/07/03 02:55:26;;;;;;;7.72;4.92;;;;;;;16.08;82.10;100928.17;1758379;81;25437;-71
2022/07/03 02:58:01;;;;;;;4.83;3.95;;;;;;;16.05;82.19;100937.02;1758303;81;25681;-71
2022/07/03 03:00:31;;;;;;;6.72;5.20;;;;;;;16.02;82.16;100930.84;1752154;81;25648;-71
2022/07/03 03:02:58;;;;;;;10.28;4.58;;;;;;;15.98;82.17;100932.08;1758071;81;26947;-71
2022/07/03 03:05:32;;;;;;;7.08;4.45;;;;;;;15.95;82.23;100936.03;1758282;81;25603;-71
2022/07/03 03:08:32;;;;;;;7.95;4.87;;;;;;;15.92;82.30;100938.87;1757643;81;25455;-71
2022/07/03 03:11:08;;;;;;;7.60;4.65;;;;;;;15.88;82.48;100940.64;1758362;81;25712;-72
2022/07/03 03:13:36;;;;;;;5.83;4.75;;;;;;;15.86;82.55;100946.42;1758368;80;25405;-70
2022/07/03 03:16:12;;;;;;;7.53;5.12;;;;;;;15.85;82.71;100939.38;1758385;81;27314;-70
2022/07/03 03:18:44;;;;;;;8.45;4.67;;;;;;;15.83;82.76;100940.28;1758256;81;25570;-70
2022/07/03 03:21:11;;;;;;;5.35;4.30;;;;;;;15.82;82.82;100939.24;1757727;80;25658;-70
2022/07/03 03:23:51;;;;;;;6.50;5.08;;;;;;;15.81;83.02;100935.70;1758465;81;26283;-71
2022/07/03 03:26:22;;;;;;;5.72;4.85;;;;;;;15.82;82.87;100934.58;1758424;81;25586;-70
2022/07/03 03:28:50;;;;;;;5.37;4.58;;;;;;;15.79;82.97;100933.87;1758313;81;27544;-72
2022/07/03 03:31:18;;;;;;;6.22;4.47;;;;;;;15.78;83.11;100929.56;1758222;81;25636;-72
2022/07/03 03:33:48;;;;;;;8.98;5.10;;;;;;;15.79;82.89;100930.34;1758401;81;25456;-72
2022/07/03 03:36:18;;;;;;;5.85;4.67;;;;;;;15.79;83.05;100929.78;1758406;81;25709;-73
2022/07/03 03:38:46;;;;;;;6.87;4.70;;;;;;;15.78;82.90;100926.83;1758512;81;25626;-72
2022/07/03 03:41:13;;;;;;;6.25;5.33;;;;;;;15.79;83.25;100931.14;1758348;81;27944;-72
2022/07/03 03:43:41;;;;;;;5.58;5.00;;;;;;;15.80;83.15;100930.02;1758370;81;25624;-71
2022/07/03 03:46:07;;;;;;;8.70;4.50;;;;;;;15.80;83.25;100928.66;1758382;81;25411;-74
2022/07/03 03:48:35;;;;;;;7.62;4.95;;;;;;;15.82;83.18;100925.03;1758298;81;25597;-74
2022/07/03 03:51:04;;;;;;;8.18;4.85;;;;;;;15.84;83.22;100917.89;1758363;81;25454;-72
2022/07/03 03:53:30;;;;;;;;;;;;;;;15.85;83.27;100925.75;1760977;81;27917;-72
2022/07/03 03:56:14;;;;;;;7.47;4.37;;;;;;;15.86;83.47;100915.05;1758282;81;33560;-72
2022/07/03 03:58:42;;;;;;;9.85;5.17;;;;;;;15.87;83.25;100911.78;1758388;81;25606;-72
2022/07/03 04:01:11;;;;;;;4.20;3.83;;;;;;;15.88;83.29;100913.36;1758341;81;25709;-71
2022/07/03 04:03:38;;;;;;;8.17;4.67;;;;;;;15.90;83.36;100910.30;1758821;81;25446;-71
2022/07/03 04:06:05;;;;;;;4.80;4.35;;;;;;;15.93;83.40;100911.02;1758737;81;27388;-71
2022/07/03 04:08:31;;;;;;;8.10;4.15;;;;;;;15.96;83.36;100907.06;1758681;81;25631;-71
2022/07/03 04:10:58;;;;;;;6.05;4.20;;;;;;;15.98;83.28;100901.27;1758798;81;25405;-71
2022/07/03 04:13:24;;;;;;;5.17;3.85;;;;;;;16.03;83.45;100902.45;1758881;81;26510;-71
2022/07/03 04:15:53;;;;;;;6.58;4.45;;;;;;;16.06;83.59;100897.13;1778381;80;25206;-71
2022/07/03 04:18:20;;;;;;;;;;;;;;;16.12;83.52;100905.91;1781964;80;27286;-70
2022/07/03 04:20:46;;;;;;;6.37;4.37;;;;;;;16.16;83.72;100906.06;1779272;80;25291;-70
2022/07/03 04:23:12;;;;;;;7.17;3.75;;;;;;;16.20;83.65;100909.72;1779413;80;25544;-70
2022/07/03 04:25:39;;;;;;;6.58;4.80;;;;;;;16.24;83.54;100911.46;1779377;80;25785;-70
2022/07/03 04:28:05;;;;;;;6.25;3.62;;;;;;;16.30;83.50;100911.27;1749379;80;25414;-73
2022/07/03 04:30:31;;;;;;;9.93;3.95;;;;;;;16.34;83.09;100917.64;1779490;80;28084;-73
2022/07/03 04:32:57;;;;;;;6.92;3.90;;;;;;;16.38;83.28;100918.59;1779355;80;25566;-73
2022/07/03 04:35:23;;;;;;;4.37;3.70;;;;;;;16.43;83.15;100914.30;1779386;80;25221;-73
2022/07/03 04:37:49;;;;;;;7.67;3.45;;;;;;;16.48;83.17;100916.83;1778749;80;25708;-71
2022/07/03 04:40:15;;;;;;;8.00;3.67;;;;;;;16.54;83.25;100909.22;1778779;80;25642;-71
2022/07/03 04:42:42;;;;;;;7.47;3.87;;;;;;;16.60;83.30;100914.69;1778744;80;27307;-71
2022/07/03 04:45:08;;;;;;;6.55;3.75;;;;;;;16.66;83.12;100904.38;1778647;80;25449;-71
2022/07/03 04:47:35;;;;;;;3.85;3.12;;;;;;;16.73;83.22;100910.88;1778775;80;25477;-71
2022/07/03 04:50:01;;;;;;;6.33;2.87;;;;;;;16.79;82.90;100911.49;1778739;80;26189;-71
2022/07/03 04:52:27;;;;;;;7.00;4.30;;;;;;;16.86;82.98;100905.52;1778775;80;25598;-71
2022/07/03 04:54:53;;;;;;;6.55;3.80;;;;;;;16.92;82.89;100910.41;1778725;80;28114;-71
2022/07/03 04:57:20;;;;;;;4.97;2.60;;;;;;;17.00;82.43;100910.10;1778667;80;25704;-71
2022/07/03 04:59:46;;;;;;;5.67;3.25;;;;;;;17.05;82.17;100911.25;1778723;80;25409;-71
2022/07/03 05:02:13;;;;;;;6.10;2.98;;;;;;;17.13;82.19;100912.31;1778715;80;26373;-71
2022/07/03 05:04:39;;;;;;;11.45;3.27;;;;;;;17.20;82.29;100911.18;1756971;80;25251;-71
2022/07/03 05:07:05;;;;;;;8.53;3.67;;;;;;;17.29;82.38;100917.91;1778762;80;27330;-71
2022/07/03 05:09:33;;;;;;;4.00;2.47;;;;;;;17.39;82.00;100913.95;1778645;80;25631;-73
2022/07/03 05:11:59;;;;;;;5.65;2.60;;;;;;;17.46;81.59;100909.50;1778817;80;25374;-73
2022/07/03 05:14:25;;;;;;;6.62;2.80;;;;;;;17.53;81.37;100910.30;1774312;80;26227;-73
2022/07/03 05:16:51;;;;;;;3.77;2.12;;;;;;;17.61;80.99;100905.30;1758562;81;25375;-73
2022/07/03 05:19:17;;;;;;;4.78;2.12;;;;;;;17.71;80.90;100906.78;1758490;81;27345;-73
2022/07/03 05:21:44;;;;;;;6.85;2.47;;;;;;;17.77;79.87;100909.50;1758442;81;25591;-73
2022/07/03 05:24:10;;;;;;;2.70;1.60;;;;;;;17.85;79.62;100907.80;1758522;81;25630;-73
2022/07/03 05:26:36;;;;;;;4.00;1.77;;;;;;;17.91;78.58;100914.09;1758514;81;25585;-73
2022/07/03 05:29:02;;;;;;;4.58;1.70;;;;;;;17.98;78.17;100916.81;1758602;81;25583;-74
2022/07/03 05:31:28;;;;;;;3.47;1.80;;;;;;;18.06;78.14;100918.63;1739721;81;27286;-73
2022/07/03 05:33:54;;;;;;;4.00;1.85;;;;;;;18.17;78.08;100914.87;1758709;81;25551;-73
2022/07/03 05:36:20;;;;;;;3.17;1.50;;;;;;;18.31;77.98;100918.59;1758785;81;25608;-73
2022/07/03 05:41:31;;;;;;;3.98;1.62;;;;;;;18.61;76.93;100917.12;1758471;81;25548;-73
2022/07/03 05:43:58;;;;;;;3.60;2.00;;;;;;;18.78;75.78;100914.66;1758451;81;27342;-73
2022/07/03 05:46:24;;;;;;;3.80;1.40;;;;;;;18.92;75.41;100910.17;1758287;81;25850;-73
2022/07/03 05:48:50;;;;;;;4.60;1.45;;;;;;;19.07;74.80;100910.53;1758435;81;25401;-73
2022/07/03 05:51:16;;;;;;;4.65;1.40;;;;;;;19.20;74.53;100912.84;1758411;81;26328;-73
2022/07/03 05:53:42;;;;;;;3.10;1.87;;;;;;;19.34;73.79;100905.58;1758464;81;25454;-73
2022/07/03 05:56:09;;;;;;;3.83;1.60;;;;;;;19.49;73.35;100911.41;1758432;81;27203;-72
2022/07/03 05:58:36;;;;;;;4.42;1.50;;;;;;;19.63;72.64;100906.28;1758321;81;25388;-72
2022/07/03 06:01:02;;;;;;;1.65;1.55;;;;;;;19.75;71.86;100910.31;1758459;81;25651;-74
2022/07/03 06:03:28;;;;;;;5.22;1.60;;;;;;;19.89;71.12;100907.69;1758391;81;25689;-73
2022/07/03 06:05:54;;;;;;;3.52;1.12;;;;;;;20.02;71.02;100908.34;1758514;81;25579;-73
2022/07/03 06:08:20;;;;;;;5.20;1.57;;;;;;;20.15;70.38;100911.98;1758435;81;27515;-73
2022/07/03 06:10:46;;;;;;;3.02;1.82;;;;;;;20.30;70.05;100915.84;1758323;81;25538;-73
2022/07/03 06:13:12;;;;;;;2.98;1.42;;;;;;;20.43;69.69;100915.13;1758455;81;25577;-73
2022/07/03 06:15:38;;;;;;;2.33;1.30;;;;;;;20.54;68.97;100919.47;1758279;80;25681;-74
2022/07/03 06:18:04;;;;;;;5.37;1.82;;;;;;;20.67;68.05;100914.63;1758437;81;25457;-74
2022/07/03 06:20:30;;;;;;;3.17;1.57;;;;;;;20.75;67.51;100917.73;1758389;81;27448;-73
2022/07/03 06:22:58;;;;;;;4.72;1.30;;;;;;;20.87;67.46;100917.60;1758306;81;25373;-73
2022/07/03 06:25:24;;;;;;;3.37;1.22;;;;;;;21.03;67.22;100918.08;1758404;81;25482;-73
2022/07/03 06:27:50;;;;;;;4.20;1.30;;;;;;;21.17;66.45;100916.16;1758376;81;25657;-73
2022/07/03 06:30:16;;;;;;;3.22;1.15;;;;;;;21.32;66.36;100913.05;1758433;81;25619;-74
2022/07/03 06:32:42;;;;;;;3.47;1.40;;;;;;;21.48;65.80;100918.48;1739345;81;28081;-74
2022/07/03 06:35:08;;;;;;;4.25;1.42;;;;;;;21.61;65.28;100919.88;1758355;81;25573;-74
2022/07/03 06:37:35;;;;;;;3.30;1.10;;;;;;;21.75;64.77;100920.09;1758417;81;25447;-74
2022/07/03 06:40:01;;;;;;;3.98;1.20;;;;;;;21.87;64.13;100918.30;1758330;81;25662;-74
2022/07/03 06:42:27;;;;;;;3.77;1.10;;;;;;;22.01;63.46;100919.30;1758423;81;25462;-74
2022/07/03 06:44:53;;;;;;;1.67;1.20;;;;;;;22.15;63.15;100917.89;1758766;81;27319;-74
2022/07/03 06:47:19;;;;;;;6.75;1.67;;;;;;;22.28;62.20;100918.50;1758472;81;25618;-74
2022/07/03 06:49:46;;;;;;;5.22;1.30;;;;;;;22.37;61.73;100918.99;1753761;81;25468;-74
2022/07/03 06:52:12;;;;;;;4.47;2.50;;;;;;;22.50;61.70;100918.19;1743998;81;25657;-74
2022/07/03 06:54:41;;;;;;;2.95;1.20;;;;;;;22.67;61.66;100926.45;1758462;81;25612;-74
2022/07/03 06:57:06;;;;;;;17.30;10.78;;;;;;;22.78;60.56;100909.42;1758775;81;27406;-74
2022/07/03 06:59:32;;;;;;;3.37;1.60;;;;;;;22.95;60.51;100917.68;1757384;81;25670;-75
2022/07/03 07:01:58;;;;;;;4.15;1.30;;;;;;;23.11;59.61;100910.59;1735205;81;25581;-74
2022/07/03 07:04:24;;;;;;;2.10;1.22;;;;;;;23.22;59.06;100905.95;1758357;81;25813;-73
2022/07/03 07:06:50;;;;;;;4.75;1.45;;;;;;;23.39;59.06;100903.14;1757971;81;25608;-73
2022/07/03 07:09:16;;;;;;;1.95;1.22;;;;;;;23.54;58.34;100911.55;1758111;81;28084;-73
2022/07/03 07:11:42;;;;;;;2.45;1.17;;;;;;;23.68;57.82;100904.73;1758295;81;25697;-74
2022/07/03 07:14:08;;;;;;;3.33;1.20;;;;;;;23.82;57.05;100896.59;1757780;81;25635;-73
2022/07/03 07:16:35;;;;;;;4.55;1.12;;;;;;;23.98;56.67;100895.49;1774575;80;26340;-73
2022/07/03 07:19:01;;;;;;;4.67;1.57;;;;;;;24.12;56.33;100902.47;1778020;80;25378;-73
2022/07/03 07:21:27;;;;;;;3.20;1.35;;;;;;;24.29;56.27;100894.05;1778690;80;27611;-74
2022/07/03 07:23:53;;;;;;;3.00;1.42;;;;;;;24.54;55.84;100887.84;1778220;80;25607;-74
2022/07/03 07:26:20;;;;;;;3.80;1.40;;;;;;;24.70;55.35;100868.94;1777835;80;25781;-73
2022/07/03 07:28:47;;;;;;;3.35;1.25;;;;;;;24.92;55.15;100862.84;1778762;80;25852;-74
2022/07/03 07:31:13;;;;;;;3.37;1.70;;;;;;;25.12;53.55;100862.47;1778860;80;25631;-73
2022/07/03 07:33:39;;;;;;;2.77;1.05;;;;;;;25.33;53.99;100863.87;1778486;80;27266;-73
2022/07/03 07:36:05;;;;;;;2.42;1.10;;;;;;;25.56;53.50;100862.67;1778656;80;25623;-73
2022/07/03 07:38:31;;;;;;;2.10;0.98;;;;;;;25.80;53.13;100863.03;1778522;80;25453;-73
2022/07/03 07:40:58;;;;;;;2.20;1.00;;;;;;;26.04;52.28;100859.41;1748454;80;26205;-73
2022/07/03 07:43:24;;;;;;;2.05;0.90;;;;;;;26.28;51.97;100859.70;1778344;80;25627;-73
2022/07/03 07:45:52;;;;;;;3.87;1.72;;;;;;;26.53;51.55;100850.45;1778748;80;27190;-73
2022/07/03 07:48:19;;;;;;;1.67;1.12;;;;;;;26.79;51.05;100860.23;1748476;80;25835;-73
2022/07/03 07:50:45;;;;;;;3.58;1.10;;;;;;;27.00;49.85;100857.31;1778769;80;25563;-73
2022/07/03 07:53:11;;;;;;;2.22;0.90;;;;;;;27.08;49.33;100857.25;1778253;80;25685;-73
2022/07/03 07:55:37;;;;;;;2.42;0.85;;;;;;;27.28;49.44;100858.30;1778773;80;25480;-74
2022/07/03 07:58:04;;;;;;;3.02;0.80;;;;;;;27.49;48.57;100855.91;1778887;80;27626;-74
2022/07/03 08:00:29;;;;;;;1.67;0.80;;;;;;;27.66;48.17;100847.81;1778610;80;25626;-73
2022/07/03 08:05:40;;;;;;;2.20;0.90;;;;;;;27.89;46.57;100854.90;1778716;80;25683;-74
2022/07/03 08:08:13;;;;;;;1.15;0.80;;;;;;;28.04;46.18;100849.97;1778508;80;25648;-74
2022/07/03 08:10:47;;;;;;;2.75;1.02;;;;;;;28.23;45.65;100850.53;1778590;80;27367;-74
2022/07/03 08:13:15;;;;;;;4.55;1.05;;;;;;;28.42;45.59;100849.11;1778230;80;25488;-74
2022/07/03 08:15:44;;;;;;;3.47;1.10;;;;;;;28.58;44.43;100846.50;1772528;80;25542;-74
2022/07/03 08:18:11;;;;;;;3.93;1.83;;;;;;;28.70;44.00;100835.40;1758488;81;25777;-75
2022/07/03 08:20:37;;;;;;;2.37;0.90;;;;;;;28.78;43.36;100837.48;1758286;81;25588;-73
2022/07/03 08:23:05;;;;;;;2.10;1.02;;;;;;;28.93;43.85;100848.57;1758330;81;27112;-75
2022/07/03 08:25:32;;;;;;;3.45;1.07;;;;;;;29.10;43.67;100844.50;1758091;81;25536;-75
2022/07/03 08:27:59;;;;;;;7.28;3.85;;;;;;;29.30;43.05;100837.02;1757954;81;25599;-74
2022/07/03 08:30:26;;;;;;;3.22;1.62;;;;;;;29.42;42.14;100841.19;1758313;81;25669;-74
2022/07/03 08:32:56;;;;;;;1.12;0.80;;;;;;;29.49;42.09;100835.50;1758275;81;25614;-74
2022/07/03 08:35:22;;;;;;;1.60;1.22;;;;;;;29.61;41.35;100827.89;1758396;81;27395;-74
2022/07/03 08:37:51;;;;;;;2.47;0.90;;;;;;;29.76;41.06;100828.44;1758144;81;25625;-74
2022/07/03 08:40:20;;;;;;;2.52;0.93;;;;;;;29.79;40.57;100834.53;1757915;81;25600;-74
2022/07/03 08:42:51;;;;;;;1.50;0.80;;;;;;;29.96;39.56;100825.62;1758463;81;25621;-74
2022/07/03 08:45:20;;;;;;;2.05;0.80;;;;;;;30.08;39.41;100824.80;1758356;81;25564;-73
2022/07/03 08:47:48;;;;;;;1.37;0.75;;;;;;;30.14;39.29;100829.44;1758665;81;27281;-74
2022/07/03 08:50:18;;;;;;;2.80;0.70;;;;;;;30.29;38.94;100822.14;1758565;81;25453;-74
2022/07/03 08:52:46;;;;;;;3.92;1.32;;;;;;;30.47;38.05;100823.17;1758441;81;25532;-73
2022/07/03 08:55:14;;;;;;;1.72;1.17;;;;;;;30.49;38.19;100816.55;1758705;81;26157;-73
2022/07/03 08:57:43;;;;;;;2.02;1.02;;;;;;;30.72;38.25;100817.78;1758644;81;33008;-74
2022/07/03 09:00:14;;;;;;;1.87;0.90;;;;;;;30.83;38.11;100809.14;1758379;81;27383;-74
2022/07/03 09:02:45;;;;;;;4.97;1.05;;;;;;;31.05;37.76;100807.23;1739569;81;25472;-74
2022/07/03 09:05:13;;;;;;;1.47;1.00;;;;;;;31.17;37.90;100811.33;1739626;81;25416;-75
2022/07/03 09:07:42;;;;;;;4.30;1.62;;;;;;;31.35;37.97;100804.66;1758290;81;26178;-74
2022/07/03 09:10:18;;;;;;;3.10;1.40;;;;;;;31.55;37.59;100801.75;1758540;81;25562;-74
2022/07/03 09:12:47;;;;;;;3.27;0.82;;;;;;;31.78;37.21;100798.50;1758486;81;27315;-74
2022/07/03 09:15:13;;;;;;;;;;;;;;;31.97;36.86;100798.14;1760869;81;25712;-74
2022/07/03 09:17:40;;;;;;;3.27;1.90;;;;;;;32.14;36.09;100797.47;1758462;81;25463;-72
2022/07/03 09:20:08;;;;;;;2.22;1.20;;;;;;;32.29;36.32;100793.62;1758387;81;25669;-74
2022/07/03 09:22:37;;;;;;;2.67;0.80;;;;;;;32.46;36.28;100788.69;1758523;81;25399;-73
2022/07/03 09:25:11;;;;;;;;;;;;;;;32.58;35.50;100798.45;1760929;81;27490;-73
2022/07/03 09:27:49;;;;;;;2.67;1.10;;;;;;;32.56;34.79;100797.36;1758357;81;25406;-73
2022/07/03 09:30:15;;;;;;;;;;;;;;;32.55;35.65;100794.38;1738758;81;25447;-74
2022/07/03 09:32:48;;;;;;;2.52;0.90;;;;;;;32.65;34.90;100796.70;1758459;81;25704;-74
2022/07/03 09:35:22;;;;;;;2.22;1.00;;;;;;;32.83;35.08;100793.29;1758406;81;25419;-74
2022/07/03 09:37:59;;;;;;;1.77;1.00;;;;;;;32.99;34.89;100800.78;1758340;81;27358;-74
2022/07/03 09:40:30;;;;;;;2.70;1.50;;;;;;;33.19;34.57;100792.89;1758109;81;25513;-73
2022/07/03 09:43:08;;;;;;;4.37;0.90;;;;;;;33.26;34.44;100795.44;1743789;81;25625;-73
2022/07/03 09:45:59;;;;;;;2.40;1.00;;;;;;;33.28;33.63;100788.75;1758661;81;25603;-73
2022/07/03 09:48:31;;;;;;;1.85;0.95;;;;;;;33.37;33.89;100782.43;1758502;81;25634;-73
2022/07/03 09:51:23;;;;;;;1.47;1.00;;;;;;;33.37;33.31;100776.05;1758403;81;28304;-74
2022/07/03 09:53:56;;;;;;;2.00;1.25;;;;;;;33.31;33.43;100773.06;1758016;81;25540;-74
2022/07/03 09:56:28;;;;;;;3.02;0.90;;;;;;;33.40;33.61;100781.52;1757141;81;25544;-73
2022/07/03 09:59:12;;;;;;;3.92;1.05;;;;;;;33.68;32.97;100773.34;1756446;81;25703;-73
2022/07/03 10:01:42;;;;;;;3.45;1.20;;;;;;;33.92;33.31;100778.44;1739362;81;25407;-73
2022/07/03 10:04:13;;;;;;;4.62;1.10;;;;;;;34.16;33.11;100784.34;1758462;81;28062;-73
2022/07/03 10:06:58;;;;;;;1.92;1.02;;;;;;;34.15;32.65;100770.14;1758725;81;25415;-73
2022/07/03 10:09:29;;;;;;;3.37;1.20;;;;;;;34.25;32.63;100767.55;1758245;81;25646;-73
2022/07/03 10:11:59;;;;;;;4.05;1.12;;;;;;;34.44;32.34;100769.80;1758187;81;25691;-73
2022/07/03 10:14:28;;;;;;;2.15;0.90;;;;;;;34.63;32.15;100774.83;1758538;81;25367;-73
2022/07/03 10:16:57;;;;;;;1.77;0.85;;;;;;;34.82;32.05;100772.88;1758138;81;27509;-73
2022/07/03 10:19:29;;;;;;;2.62;0.70;;;;;;;34.93;31.53;100760.55;1758266;81;25752;-73
2022/07/03 10:22:02;;;;;;;1.82;0.80;;;;;;;34.96;31.10;100758.20;1758230;81;25457;-73
2022/07/03 10:24:31;;;;;;;1.40;0.80;;;;;;;34.92;31.51;100761.00;1758396;81;25672;-74
2022/07/03 10:27:00;;;;;;;3.10;0.80;;;;;;;34.88;30.93;100758.98;1758447;81;25668;-74
2022/07/03 10:29:28;;;;;;;4.92;1.40;;;;;;;34.87;30.88;100757.41;1758151;81;27491;-74
2022/07/03 10:31:56;;;;;;;2.22;0.93;;;;;;;34.75;30.51;100759.92;1758007;81;25638;-74
2022/07/03 10:34:25;;;;;;;3.77;1.00;;;;;;;34.76;30.99;100750.86;1758345;81;25367;-74
2022/07/03 10:37:01;;;;;;;2.92;0.72;;;;;;;34.88;30.81;100753.37;1739454;81;25912;-74
2022/07/03 10:39:50;;;;;;;3.17;1.42;;;;;;;34.97;30.55;100746.34;1758257;81;25581;-73
2022/07/03 10:45:20;;;;;;;2.42;1.20;;;;;;;34.66;29.84;100738.02;1758120;81;25623;-74
2022/07/03 10:47:48;;;;;;;1.70;1.00;;;;;;;34.47;30.26;100733.77;1758389;81;25465;-74
2022/07/03 10:50:22;;;;;;;2.65;0.68;;;;;;;34.52;30.52;100729.58;1739230;81;25634;-74
2022/07/03 10:52:49;;;;;;;3.50;1.15;;;;;;;34.67;30.49;100724.92;1758400;81;25613;-74
2022/07/03 10:55:17;;;;;;;4.83;0.93;;;;;;;34.78;30.52;100731.50;1758535;81;27450;-75
2022/07/03 10:58:06;;;;;;;3.10;1.10;;;;;;;34.98;30.55;100730.41;1758544;81;25651;-74
2022/07/03 11:00:54;;;;;;;1.98;0.80;;;;;;;35.18;30.75;100729.17;1758378;81;25611;-73
2022/07/03 11:03:57;;;;;;;1.47;1.02;;;;;;;35.35;30.22;100718.40;1758579;81;25621;-74
2022/07/03 11:06:49;;;;;;;4.15;1.02;;;;;;;35.41;30.11;100717.90;1684399;85;25530;-74
2022/07/03 11:09:16;;;;;;;0.95;0.62;;;;;;;35.55;29.73;100713.64;1678482;85;27321;-75
2022/07/03 11:11:55;;;;;;;1.95;1.00;;;;;;;35.50;29.42;100708.66;1679439;85;25745;-74
2022/07/03 11:14:25;;;;;;;2.22;0.93;;;;;;;35.47;29.39;100708.98;1679464;85;25732;-75
2022/07/03 11:17:21;;;;;;;2.25;1.27;;;;;;;35.68;29.49;100707.20;1689439;82;26135;-74
2022/07/03 11:22:55;;;;;;;2.15;0.82;;;;;;;35.82;28.76;100702.95;1690134;84;27540;-75
2022/07/03 11:25:25;;;;;;;1.50;1.07;;;;;;;35.85;28.73;100689.98;1679071;85;25513;-75
2022/07/03 11:27:52;;;;;;;2.98;1.42;;;;;;;35.85;28.80;100701.23;1683469;85;25546;-75
2022/07/03 11:30:21;;;;;;;1.57;0.90;;;;;;;35.91;28.82;100697.91;1682150;85;25625;-75
2022/07/03 11:32:57;;;;;;;2.60;0.60;;;;;;;35.91;28.64;100697.91;1648404;87;25497;-75
2022/07/03 11:35:53;;;;;;;2.83;0.98;;;;;;;35.60;27.94;100689.73;1648464;87;27033;-74
2022/07/03 11:38:27;;;;;;;2.17;1.07;;;;;;;35.45;28.49;100693.83;1648591;86;34343;-75
2022/07/03 11:40:57;;;;;;;2.80;1.10;;;;;;;35.64;29.05;100688.31;1668419;85;25490;-74
2022/07/03 11:43:23;;;;;;;1.20;0.80;;;;;;;35.87;28.65;100684.65;1660207;86;26231;-75
2022/07/03 11:45:51;;;;;;;3.87;1.00;;;;;;;35.92;27.89;100678.38;1718631;83;25470;-75
2022/07/03 11:48:22;;;;;;;2.67;0.80;;;;;;;35.70;27.97;100677.96;1715088;83;27314;-75
2022/07/03 11:50:49;;;;;;;1.87;0.90;;;;;;;35.74;28.00;100676.44;1715044;83;25569;-75
2022/07/03 11:53:20;;;;;;;12.28;7.47;;;;;;;35.90;28.19;100677.44;1704991;80;25455;-74
2022/07/03 11:55:59;;;;;;;2.50;1.15;;;;;;;35.80;28.19;100677.33;1778444;80;25642;-73
2022/07/03 11:58:48;;;;;;;3.92;1.02;;;;;;;35.50;28.30;100672.09;1778342;80;25629;-74